Time;durP1;ratioP1;P1;durP2;ratioP2;P2;SDS_P1;SDS_P2;PMS_P1;PMS_P2;Temp;Humidity;BMP_temperature;BMP_pressure;BME280_temperature;BME280_humidity;BME280_pressure;Samples;Min_cycle;Max_cycle;Signal;HPM_P1;HPM_P2
2023/03/22 00:00:34;;;;;;;7.38;4.40;;;;;;;19.29;43.72;100828.91;5073383;28;20028;-64
2023/03/22 00:02:59;;;;;;;9.00;3.85;;;;;;;19.26;44.91;100821.13;5073408;28;20040;-64
2023/03/22 00:05:25;;;;;;;10.05;4.03;;;;;;;19.24;44.40;100820.44;5056528;28;20495;-64
2023/03/22 00:07:52;;;;;;;6.15;4.40;;;;;;;19.21;45.12;100820.84;5056819;28;20441;-64
2023/03/22 00:10:18;;;;;;;9.23;5.22;;;;;;;19.17;44.21;100812.22;5073692;28;20051;-64
2023/03/22 00:12:44;;;;;;;7.68;4.13;;;;;;;19.11;44.10;100808.38;5072868;28;20052;-64
2023/03/22 00:15:10;;;;;;;16.60;6.00;;;;;;;19.06;44.56;100799.94;5056613;28;20105;-64
2023/03/22 00:17:35;;;;;;;9.13;4.38;;;;;;;19.02;44.09;100798.63;5073215;28;20075;-65
2023/03/22 00:20:05;;;;;;;7.32;4.22;;;;;;;19.01;44.39;100798.81;5073116;28;20029;-64
2023/03/22 00:22:31;;;;;;;9.02;4.15;;;;;;;18.98;44.51;100802.72;5073155;28;20032;-64
2023/03/22 00:24:57;;;;;;;7.18;4.00;;;;;;;18.95;44.42;100802.25;5075067;28;20027;-64
2023/03/22 00:27:22;;;;;;;18.70;4.88;;;;;;;18.91;44.42;100798.22;5070363;28;20037;-64
2023/03/22 00:29:51;;;;;;;7.55;3.97;;;;;;;18.88;44.90;100790.44;5073003;28;20036;-64
2023/03/22 00:32:17;;;;;;;7.55;3.97;;;;;;;18.87;44.81;100795.00;5073038;28;20032;-64
2023/03/22 00:34:42;;;;;;;8.85;4.25;;;;;;;18.85;44.79;100794.34;5073008;28;20036;-64
2023/03/22 00:37:08;;;;;;;8.23;4.82;;;;;;;18.87;44.96;100791.47;5056633;28;20029;-64
2023/03/22 00:39:34;;;;;;;9.23;4.25;;;;;;;18.87;44.71;100794.19;5072907;28;20028;-64
2023/03/22 00:41:59;;;;;;;7.30;4.30;;;;;;;18.85;44.30;100793.50;5056054;28;20037;-65
2023/03/22 00:44:25;;;;;;;7.60;4.00;;;;;;;18.83;45.02;100785.56;5072685;28;20032;-64
2023/03/22 00:46:50;;;;;;;7.72;3.95;;;;;;;18.78;44.23;100774.41;5056170;28;20024;-64
2023/03/22 00:49:15;;;;;;;7.55;4.10;;;;;;;18.79;44.46;100776.09;5073036;28;20025;-64
2023/03/22 00:51:41;;;;;;;8.52;4.40;;;;;;;18.80;44.33;100772.34;5072326;28;20025;-64
2023/03/22 00:54:06;;;;;;;7.05;4.30;;;;;;;18.79;44.73;100776.09;5072541;28;20041;-64
2023/03/22 00:56:32;;;;;;;6.75;3.72;;;;;;;18.76;44.90;100771.03;5039603;28;20065;-65
2023/03/22 00:58:58;;;;;;;10.80;3.75;;;;;;;18.74;44.92;100774.94;5072624;28;20032;-64
2023/03/22 01:01:24;;;;;;;10.00;3.65;;;;;;;18.74;44.19;100767.66;5073194;28;20040;-64
2023/03/22 01:03:49;;;;;;;8.70;3.70;;;;;;;18.71;44.46;100768.03;5072871;28;20063;-64
2023/03/22 01:06:15;;;;;;;6.72;3.40;;;;;;;18.70;44.29;100760.94;5055628;28;20556;-64
2023/03/22 01:08:41;;;;;;;7.78;3.42;;;;;;;18.70;44.42;100752.78;5055400;28;20491;-64
2023/03/22 01:11:08;;;;;;;7.07;2.97;;;;;;;18.69;44.70;100748.38;5072111;28;20035;-64
2023/03/22 01:13:36;;;;;;;9.60;3.40;;;;;;;18.68;44.50;100740.44;5072166;28;20485;-65
2023/03/22 01:16:02;;;;;;;6.93;3.13;;;;;;;18.68;44.97;100735.00;5072568;28;20036;-64
2023/03/22 01:18:27;;;;;;;5.82;2.97;;;;;;;18.66;44.69;100732.47;5073316;28;20078;-64
2023/03/22 01:20:53;;;;;;;6.50;3.28;;;;;;;18.66;45.15;100735.16;5055454;28;20033;-64
2023/03/22 01:23:18;;;;;;;5.18;3.15;;;;;;;18.63;44.67;100737.41;5072124;28;20412;-64
2023/03/22 01:25:43;;;;;;;6.78;3.40;;;;;;;18.61;44.28;100734.88;5055630;28;20059;-64
2023/03/22 01:28:09;;;;;;;5.43;2.67;;;;;;;18.59;44.93;100731.53;5072449;28;20039;-64
2023/03/22 01:30:34;;;;;;;6.95;2.80;;;;;;;18.59;44.95;100720.66;5072314;28;20071;-64
2023/03/22 01:33:00;;;;;;;8.80;3.20;;;;;;;18.57;44.42;100706.41;5055964;28;20039;-64
2023/03/22 01:35:25;;;;;;;5.50;2.58;;;;;;;18.55;44.53;100708.47;5055310;28;20036;-64
2023/03/22 01:37:50;;;;;;;7.93;2.80;;;;;;;18.50;45.67;100705.47;5071725;28;20632;-64
2023/03/22 01:40:16;;;;;;;7.65;2.78;;;;;;;18.49;45.43;100709.22;5055532;28;20501;-64
2023/03/22 01:42:42;;;;;;;7.00;2.38;;;;;;;18.48;44.26;100702.13;5055034;28;20036;-64
2023/03/22 01:45:13;;;;;;;6.38;2.53;;;;;;;18.46;45.60;100699.53;5072042;28;20403;-64
2023/03/22 01:47:49;;;;;;;10.95;2.53;;;;;;;18.46;45.47;100698.69;5071690;28;20106;-64
2023/03/22 01:50:16;;;;;;;7.07;2.53;;;;;;;18.44;45.44;100689.91;5073015;28;20033;-64
2023/03/22 01:52:43;;;;;;;5.80;2.80;;;;;;;18.45;44.73;100686.19;5071893;28;20028;-64
2023/03/22 01:55:08;;;;;;;5.57;3.08;;;;;;;18.43;45.13;100690.91;5073290;28;20033;-64
2023/03/22 01:57:36;;;;;;;3.63;2.17;;;;;;;18.40;45.52;100677.72;5071679;28;20514;-64
2023/03/22 02:00:09;;;;;;;9.10;2.50;;;;;;;18.38;44.71;100677.06;5054951;28;20036;-64
2023/03/22 02:02:34;;;;;;;6.88;2.53;;;;;;;18.37;45.59;100669.97;5055923;28;20044;-64
2023/03/22 02:05:00;;;;;;;5.53;2.50;;;;;;;18.31;45.44;100662.56;5038253;28;20036;-64
2023/03/22 02:07:26;;;;;;;5.97;2.72;;;;;;;18.33;45.27;100665.94;5054637;28;20035;-64
2023/03/22 02:09:52;;;;;;;8.90;2.83;;;;;;;18.32;44.75;100653.38;5088583;28;20035;-64
2023/03/22 02:12:56;;;;;;;6.72;2.65;;;;;;;18.31;45.47;100646.28;5054776;28;20028;-64
2023/03/22 02:16:05;;;;;;;6.03;2.78;;;;;;;18.27;45.14;100645.81;5072736;28;20521;-64
2023/03/22 02:18:46;;;;;;;7.97;2.92;;;;;;;18.25;44.91;100641.59;5072302;28;20549;-64
2023/03/22 02:21:30;;;;;;;18.25;3.83;;;;;;;18.24;45.32;100631.78;5072550;28;20063;-64
2023/03/22 02:24:19;;;;;;;10.93;2.90;;;;;;;18.20;44.68;100634.00;5072539;28;20169;-64
2023/03/22 02:27:05;;;;;;;16.38;3.30;;;;;;;18.18;45.46;100643.34;5071180;28;20171;-64
2023/03/22 02:30:20;;;;;;;12.93;3.92;;;;;;;18.19;45.17;100628.78;5071337;28;20039;-64
2023/03/22 02:33:08;;;;;;;4.78;2.38;;;;;;;18.16;45.22;100639.97;5066506;28;20036;-64
2023/03/22 02:35:38;;;;;;;3.40;1.88;;;;;;;18.16;45.37;100643.53;5072563;28;20399;-64
2023/03/22 02:38:24;;;;;;;3.17;1.90;;;;;;;18.17;45.22;100641.69;5071162;28;20028;-64
2023/03/22 02:40:56;;;;;;;3.20;1.92;;;;;;;18.14;44.95;100632.03;5071109;28;20028;-64
2023/03/22 02:43:44;;;;;;;7.90;2.70;;;;;;;18.14;44.92;100636.63;5072533;28;20029;-64
2023/03/22 02:46:41;;;;;;;4.15;1.80;;;;;;;18.15;45.41;100646.41;5075268;28;20052;-64
2023/03/22 02:49:41;;;;;;;4.90;2.28;;;;;;;18.13;45.53;100643.91;5058364;28;20127;-64
2023/03/22 02:52:34;;;;;;;5.35;1.83;;;;;;;18.10;46.14;100628.00;5034443;28;20518;-64
2023/03/22 02:55:03;;;;;;;3.55;1.75;;;;;;;18.09;45.70;100628.19;5076172;28;20044;-64
2023/03/22 02:57:48;;;;;;;4.68;1.73;;;;;;;18.07;46.11;100630.22;5058695;28;20085;-64
2023/03/22 03:00:15;;;;;;;4.20;1.85;;;;;;;18.07;45.58;100625.66;5076752;28;20039;-64
2023/03/22 03:02:47;;;;;;;4.03;1.50;;;;;;;18.03;45.65;100617.03;5076976;28;20105;-63
2023/03/22 03:05:14;;;;;;;5.50;2.22;;;;;;;18.02;45.88;100623.50;5059419;28;20029;-64
2023/03/22 03:07:45;;;;;;;6.57;2.15;;;;;;;18.01;45.62;100619.09;5058393;28;20029;-63
2023/03/22 03:10:15;;;;;;;3.15;1.60;;;;;;;18.01;45.34;100616.38;5058521;28;20435;-63
2023/03/22 03:12:40;;;;;;;2.40;1.58;;;;;;;18.01;46.31;100613.66;5074756;28;20064;-64
2023/03/22 03:15:14;;;;;;;3.05;1.65;;;;;;;18.01;45.89;100608.25;5074834;28;20600;-65
2023/03/22 03:17:58;;;;;;;5.63;1.73;;;;;;;18.03;45.00;100613.50;5074427;28;20032;-65
2023/03/22 03:20:33;;;;;;;2.67;1.77;;;;;;;18.02;45.72;100614.53;5075592;28;20089;-62
2023/03/22 03:23:30;;;;;;;2.75;1.55;;;;;;;18.01;45.80;100613.66;5074312;28;20407;-62
2023/03/22 03:26:07;;;;;;;2.85;1.48;;;;;;;18.01;45.81;100610.09;5075336;28;20032;-63
2023/03/22 03:28:48;;;;;;;4.03;1.65;;;;;;;17.98;45.50;100607.75;5075627;28;20052;-63
2023/03/22 03:31:38;;;;;;;4.70;1.98;;;;;;;17.98;45.84;100613.19;5075831;28;20021;-63
2023/03/22 03:34:06;;;;;;;4.03;2.10;;;;;;;17.93;45.32;100611.03;5075429;28;20041;-63
2023/03/22 03:36:33;;;;;;;5.05;1.77;;;;;;;17.93;46.10;100608.31;5073909;28;20131;-63
2023/03/22 03:39:00;;;;;;;5.32;2.03;;;;;;;17.92;45.88;100603.91;5074064;28;20029;-63
2023/03/22 03:41:29;;;;;;;5.95;1.90;;;;;;;17.91;45.83;100604.97;5073957;28;20039;-63
2023/03/22 03:43:57;;;;;;;5.90;1.77;;;;;;;17.89;45.81;100603.47;5040891;28;20024;-63
2023/03/22 03:46:23;;;;;;;3.80;1.73;;;;;;;17.89;46.01;100601.59;5058004;28;20025;-63
2023/03/22 03:48:50;;;;;;;3.38;1.73;;;;;;;17.89;46.30;100593.47;5073923;28;20522;-63
2023/03/22 03:51:15;;;;;;;5.85;2.00;;;;;;;17.87;45.58;100598.19;5075180;28;20040;-63
2023/03/22 03:53:41;;;;;;;6.13;1.77;;;;;;;17.85;46.20;100599.41;5074916;28;20032;-63
2023/03/22 03:56:07;;;;;;;4.60;1.80;;;;;;;17.82;45.53;100592.50;5057108;28;20396;-63
2023/03/22 03:58:33;;;;;;;2.90;1.83;;;;;;;17.79;46.07;100589.28;5056979;28;20119;-63
2023/03/22 04:00:58;;;;;;;9.35;1.80;;;;;;;17.77;45.86;100594.91;5073860;28;20049;-62
2023/03/22 04:03:24;;;;;;;6.40;1.95;;;;;;;17.79;45.40;100583.88;5075091;28;20495;-63
2023/03/22 04:05:49;;;;;;;5.25;1.60;;;;;;;17.79;45.45;100597.41;5074283;28;20029;-63
2023/03/22 04:08:14;;;;;;;7.72;2.05;;;;;;;17.79;46.53;100587.44;5073785;28;20470;-63
2023/03/22 04:10:40;;;;;;;2.45;1.52;;;;;;;17.81;46.01;100595.41;5057298;28;20617;-63
2023/03/22 04:13:05;;;;;;;4.22;1.40;;;;;;;17.81;46.03;100588.09;5074401;28;20099;-63
2023/03/22 04:15:31;;;;;;;3.85;2.05;;;;;;;17.81;46.37;100588.09;5073709;28;20025;-63
2023/03/22 04:17:57;;;;;;;3.40;1.65;;;;;;;17.85;45.50;100594.00;5074592;28;20033;-62
2023/03/22 04:20:25;;;;;;;4.47;1.52;;;;;;;17.83;45.61;100590.63;5073553;28;20116;-63
2023/03/22 04:22:51;;;;;;;5.30;1.73;;;;;;;17.84;45.72;100601.28;5073660;28;20033;-63
2023/03/22 04:25:17;;;;;;;2.03;1.48;;;;;;;17.82;45.20;100602.47;5073766;28;20089;-63
2023/03/22 04:27:44;;;;;;;5.72;1.95;;;;;;;17.79;45.47;100583.88;5074414;28;20056;-63
2023/03/22 04:30:11;;;;;;;5.20;1.27;;;;;;;17.79;44.74;100582.00;5073068;28;20041;-63
2023/03/22 04:32:37;;;;;;;2.58;1.42;;;;;;;17.81;46.37;100590.78;5056344;28;20048;-63
2023/03/22 04:35:04;;;;;;;4.55;1.63;;;;;;;17.81;46.30;100590.78;5056288;28;20432;-63
2023/03/22 04:37:32;;;;;;;2.58;1.80;;;;;;;17.83;46.19;100593.34;5056248;28;20495;-63
2023/03/22 04:39:58;;;;;;;3.95;1.50;;;;;;;17.83;45.54;100575.22;5073437;28;20099;-63
2023/03/22 04:42:24;;;;;;;7.00;1.42;;;;;;;17.83;45.18;100574.38;5049882;28;20046;-63
2023/03/22 04:44:50;;;;;;;2.13;1.55;;;;;;;17.84;46.17;100578.75;5072586;28;20036;-63
2023/03/22 04:47:16;;;;;;;2.92;1.63;;;;;;;17.80;45.86;100583.72;5072804;28;20400;-63
2023/03/22 04:49:43;;;;;;;3.17;1.50;;;;;;;17.78;46.14;100582.22;5056163;28;20390;-63
2023/03/22 04:52:09;;;;;;;8.50;1.75;;;;;;;17.80;45.73;100583.72;5073165;28;20490;-63
2023/03/22 04:54:34;;;;;;;3.28;1.55;;;;;;;17.78;44.95;100579.50;5074038;28;20062;-63
2023/03/22 04:56:59;;;;;;;4.85;1.85;;;;;;;17.76;46.18;100590.50;5072900;28;20037;-63
2023/03/22 04:59:25;;;;;;;6.45;2.22;;;;;;;17.73;46.62;100576.47;5074034;28;20051;-63
2023/03/22 05:01:50;;;;;;;3.28;1.67;;;;;;;17.72;46.07;100572.94;5073372;28;20043;-63
2023/03/22 05:04:17;;;;;;;4.65;1.65;;;;;;;17.72;45.90;100581.06;5056203;28;20399;-63
2023/03/22 05:06:42;;;;;;;2.83;1.50;;;;;;;17.70;45.53;100583.09;5054840;28;20037;-63
2023/03/22 05:09:08;;;;;;;5.18;1.70;;;;;;;17.70;45.86;100585.81;5055744;28;20442;-63
2023/03/22 05:11:33;;;;;;;2.78;1.65;;;;;;;17.69;46.21;100581.44;5055809;28;20021;-63
2023/03/22 05:13:59;;;;;;;3.08;1.23;;;;;;;17.66;45.63;100584.50;5072137;28;20446;-63
2023/03/22 05:16:24;;;;;;;5.55;1.70;;;;;;;17.65;45.80;100580.09;5072136;28;20029;-63
2023/03/22 05:18:53;;;;;;;2.30;1.58;;;;;;;17.62;45.93;100580.44;5072772;28;20025;-62
2023/03/22 05:21:27;;;;;;;5.57;1.50;;;;;;;17.61;45.65;100576.06;5073433;28;20036;-62
2023/03/22 05:23:53;;;;;;;7.57;1.45;;;;;;;17.61;45.60;100589.63;5056673;28;20029;-63
2023/03/22 05:26:19;;;;;;;3.83;2.30;;;;;;;17.61;45.40;100578.78;5055327;28;20032;-63
2023/03/22 05:28:44;;;;;;;2.58;1.85;;;;;;;17.60;46.14;100582.50;5071995;28;20059;-62
2023/03/22 05:31:13;;;;;;;5.63;1.73;;;;;;;17.58;46.81;100573.72;5055704;28;20036;-62
2023/03/22 05:33:40;;;;;;;8.48;1.50;;;;;;;17.59;46.28;100586.22;5072044;28;20402;-63
2023/03/22 05:36:06;;;;;;;2.28;1.40;;;;;;;17.56;46.37;100570.34;5072291;28;20090;-63
2023/03/22 05:38:32;;;;;;;3.40;1.48;;;;;;;17.60;45.98;100570.81;5055390;28;20060;-63
2023/03/22 05:40:57;;;;;;;3.80;1.80;;;;;;;17.60;46.28;100587.06;5072254;28;20060;-63
2023/03/22 05:43:23;;;;;;;3.63;1.52;;;;;;;17.63;45.32;100584.00;5055115;28;20024;-64
2023/03/22 05:45:48;;;;;;;4.30;1.80;;;;;;;17.65;45.74;100580.09;5055602;28;20539;-63
2023/03/22 05:48:14;;;;;;;3.42;1.45;;;;;;;17.68;46.29;100585.16;5055088;28;20032;-63
2023/03/22 05:50:39;;;;;;;5.05;1.77;;;;;;;17.71;46.50;100595.63;5071856;28;20115;-63
2023/03/22 05:53:05;;;;;;;5.20;1.50;;;;;;;17.70;46.00;100593.94;5055416;28;20094;-63
2023/03/22 05:55:31;;;;;;;4.25;1.58;;;;;;;17.73;46.02;100590.88;5038228;28;20036;-63
2023/03/22 05:57:57;;;;;;;3.83;1.05;;;;;;;17.75;46.26;100580.72;5072412;28;20032;-63
2023/03/22 06:00:24;;;;;;;5.20;1.42;;;;;;;17.80;45.73;100589.13;5072041;28;20368;-64
2023/03/22 06:02:51;;;;;;;5.63;1.40;;;;;;;17.83;45.96;100572.50;5054773;28;20044;-63
2023/03/22 06:05:17;;;;;;;6.97;2.03;;;;;;;17.85;46.35;100581.28;5072610;28;20055;-63
2023/03/22 06:07:43;;;;;;;4.65;1.42;;;;;;;17.82;45.41;100576.22;5072491;28;20487;-63
2023/03/22 06:10:12;;;;;;;6.32;2.00;;;;;;;17.81;46.19;100573.72;5055182;28;20111;-63
2023/03/22 06:12:38;;;;;;;4.28;1.85;;;;;;;17.78;45.63;100574.91;5055191;28;20048;-63
2023/03/22 06:15:05;;;;;;;4.47;1.52;;;;;;;17.79;45.25;100573.03;5055307;28;20098;-63
2023/03/22 06:17:30;;;;;;;6.22;1.48;;;;;;;17.78;46.10;100580.31;5073245;28;20033;-63
2023/03/22 06:19:56;;;;;;;3.15;1.40;;;;;;;17.76;46.28;100566.13;5075724;28;20112;-63
2023/03/22 06:22:22;;;;;;;3.40;1.17;;;;;;;17.79;46.60;100568.47;5059139;28;20052;-63
2023/03/22 06:24:48;;;;;;;6.35;1.38;;;;;;;17.82;45.76;100569.97;5058775;28;20082;-63
2023/03/22 06:27:16;;;;;;;4.18;1.50;;;;;;;17.88;46.52;100585.50;5075427;28;20039;-63
2023/03/22 06:29:42;;;;;;;5.63;1.80;;;;;;;17.91;46.02;100579.72;5058836;28;20496;-66
2023/03/22 06:32:08;;;;;;;7.32;1.60;;;;;;;17.91;46.12;100586.00;5075531;28;20047;-62
2023/03/22 06:34:33;;;;;;;7.90;1.67;;;;;;;17.93;46.51;100586.63;5041040;28;20107;-63
2023/03/22 06:36:58;;;;;;;3.92;1.42;;;;;;;17.93;45.78;100589.34;5076103;28;20059;-63
2023/03/22 06:39:24;;;;;;;6.38;1.33;;;;;;;17.96;46.18;100598.97;5075416;28;20032;-63
2023/03/22 06:41:50;;;;;;;3.83;1.08;;;;;;;17.95;45.94;100581.88;5076702;28;20514;-64
2023/03/22 06:44:15;;;;;;;5.43;1.40;;;;;;;17.95;45.62;100592.72;5075390;28;20500;-63
2023/03/22 06:46:41;;;;;;;2.33;1.08;;;;;;;17.96;46.22;100588.13;5075222;28;20040;-63
2023/03/22 06:49:06;;;;;;;2.22;1.40;;;;;;;17.96;46.40;100583.56;5075356;28;20090;-63
2023/03/22 06:51:32;;;;;;;4.85;1.55;;;;;;;17.99;45.46;100594.03;5074955;28;20028;-63
2023/03/22 06:53:58;;;;;;;5.35;1.10;;;;;;;18.01;46.33;100586.56;5075496;28;20048;-63
2023/03/22 06:56:24;;;;;;;5.60;1.38;;;;;;;18.01;45.75;100581.13;5058252;28;20032;-63
2023/03/22 06:58:50;;;;;;;4.75;1.15;;;;;;;18.03;46.24;100579.09;5075105;28;20028;-63
2023/03/22 07:01:17;;;;;;;4.80;1.02;;;;;;;18.06;45.92;100587.91;5075030;28;20041;-63
2023/03/22 07:03:42;;;;;;;3.08;1.13;;;;;;;18.04;45.72;100582.63;5074759;28;20032;-63
2023/03/22 07:06:08;;;;;;;1.50;1.02;;;;;;;18.07;45.62;100589.56;5058297;28;20059;-63
2023/03/22 07:08:34;;;;;;;4.53;2.08;;;;;;;18.09;45.30;100598.38;5058108;28;20028;-63
2023/03/22 07:10:59;;;;;;;10.90;1.42;;;;;;;18.09;46.06;100592.94;5057862;28;20017;-63
2023/03/22 07:13:25;;;;;;;3.15;1.25;;;;;;;18.14;46.02;100587.81;5075650;28;20035;-64
2023/03/22 07:15:57;;;;;;;3.63;1.13;;;;;;;18.15;45.53;100574.06;5074983;28;20033;-63
2023/03/22 07:18:24;;;;;;;2.78;0.80;;;;;;;18.18;45.87;100591.81;5058576;28;20040;-63
2023/03/22 07:20:49;;;;;;;4.15;1.02;;;;;;;18.18;45.58;100589.13;5074442;28;20043;-63
2023/03/22 07:23:15;;;;;;;6.07;0.93;;;;;;;18.17;45.43;100590.16;5058412;28;20028;-63
2023/03/22 07:25:41;;;;;;;8.95;2.25;;;;;;;18.17;44.78;100592.88;5076808;28;20036;-64
2023/03/22 07:28:09;;;;;;;4.63;1.17;;;;;;;18.18;45.62;100591.81;5061290;28;20059;-63
2023/03/22 07:30:36;;;;;;;7.85;1.27;;;;;;;18.15;45.06;100589.47;5042551;28;20522;-63
2023/03/22 07:33:02;;;;;;;10.98;1.30;;;;;;;18.16;45.50;100599.31;5074395;28;20060;-63
2023/03/22 07:35:27;;;;;;;2.28;1.25;;;;;;;18.23;44.97;100598.38;5074595;28;20059;-62
2023/03/22 07:37:53;;;;;;;6.63;0.93;;;;;;;18.26;44.86;100594.47;5075337;28;20033;-63
2023/03/22 07:40:18;;;;;;;6.57;0.93;;;;;;;18.31;44.85;100603.75;5057798;28;20086;-62
2023/03/22 07:42:44;;;;;;;6.57;1.77;;;;;;;18.32;45.55;100588.31;5073896;28;20033;-63
2023/03/22 07:45:09;;;;;;;1.33;0.68;;;;;;;18.35;44.93;100609.63;5075353;28;20035;-63
2023/03/22 07:47:35;;;;;;;3.00;1.20;;;;;;;18.35;45.61;100596.91;5073797;28;20033;-63
2023/03/22 07:50:00;;;;;;;4.50;1.02;;;;;;;18.37;46.00;100597.56;5073922;28;20033;-63
2023/03/22 07:52:26;;;;;;;3.20;1.58;;;;;;;18.38;44.87;100598.41;5073821;28;20149;-63
2023/03/22 07:54:51;;;;;;;3.67;0.85;;;;;;;18.42;44.58;100595.16;5074431;28;20082;-63
2023/03/22 07:57:16;;;;;;;2.88;1.38;;;;;;;18.46;45.14;100595.63;5074847;28;20059;-63
2023/03/22 07:59:43;;;;;;;2.90;0.98;;;;;;;18.53;44.89;100596.59;5074094;28;20511;-63
2023/03/22 08:02:09;;;;;;;9.57;1.90;;;;;;;18.60;44.85;100601.09;5057204;28;20555;-63
2023/03/22 08:04:35;;;;;;;6.93;1.88;;;;;;;18.87;44.78;100605.00;5073711;28;20115;-63
2023/03/22 08:07:00;;;;;;;3.70;0.90;;;;;;;19.25;44.08;100610.28;5075318;28;20112;-63
2023/03/22 08:09:26;;;;;;;2.35;0.93;;;;;;;19.65;43.55;100593.44;5073597;28;20033;-63
2023/03/22 08:11:51;;;;;;;3.90;0.90;;;;;;;19.79;43.51;100600.69;5073740;28;20513;-63
2023/03/22 08:14:17;;;;;;;3.28;0.80;;;;;;;19.90;43.55;100597.47;5056747;28;20029;-63
2023/03/22 08:16:43;;;;;;;9.52;1.30;;;;;;;20.02;43.12;100585.00;5075109;28;20476;-63
2023/03/22 08:19:09;;;;;;;5.68;1.30;;;;;;;20.24;43.05;100583.06;5058149;28;20024;-63
2023/03/22 08:21:35;;;;;;;3.22;1.33;;;;;;;20.53;43.10;100587.50;5184801;22;20053;-62
2023/03/22 08:24:00;;;;;;;1.40;0.80;;;;;;;20.70;42.56;100586.16;4972549;28;20038;-62
2023/03/22 08:26:26;;;;;;;5.78;1.30;;;;;;;20.94;42.29;100580.19;4952523;28;20395;-62
2023/03/22 08:28:52;;;;;;;7.45;1.10;;;;;;;21.28;41.96;100593.78;4952206;28;20035;-62
2023/03/22 08:31:18;;;;;;;4.57;0.93;;;;;;;21.28;41.70;100582.03;4953883;29;20077;-63
2023/03/22 08:33:45;;;;;;;4.25;1.27;;;;;;;21.15;42.45;100593.75;4953216;28;20051;-63
2023/03/22 08:36:13;;;;;;;4.60;1.05;;;;;;;21.04;42.47;100586.13;4968251;28;20122;-63
2023/03/22 08:38:41;;;;;;;2.53;0.95;;;;;;;20.89;42.03;100577.25;4968427;28;20525;-63
2023/03/22 08:41:06;;;;;;;5.45;0.90;;;;;;;20.81;41.91;100580.97;4967063;28;20047;-63
2023/03/22 08:43:31;;;;;;;6.43;1.02;;;;;;;20.78;41.62;100584.09;4952002;28;20031;-63
2023/03/22 08:45:57;;;;;;;7.82;1.13;;;;;;;20.74;41.50;100590.97;4953659;29;20130;-63
2023/03/22 08:48:23;;;;;;;5.47;1.00;;;;;;;20.67;41.66;100594.72;4952029;28;20050;-63
2023/03/22 08:50:49;;;;;;;2.55;0.55;;;;;;;20.71;41.44;100596.00;4953477;28;20082;-63
2023/03/22 08:53:14;;;;;;;3.17;1.05;;;;;;;20.65;41.11;100597.66;4953152;28;20567;-63
2023/03/22 08:55:43;;;;;;;6.28;1.33;;;;;;;20.64;41.30;100606.84;4952676;28;20039;-63
2023/03/22 08:58:10;;;;;;;10.45;1.20;;;;;;;20.75;41.29;100597.28;4952201;29;20503;-63
2023/03/22 09:00:35;;;;;;;5.10;1.08;;;;;;;20.82;41.03;100590.00;4968024;28;20074;-63
2023/03/22 09:03:01;;;;;;;2.85;1.17;;;;;;;20.86;41.07;100580.38;4951827;28;20040;-63
2023/03/22 09:05:26;;;;;;;4.72;1.02;;;;;;;21.00;40.52;100584.84;4952845;28;20032;-63
2023/03/22 09:07:52;;;;;;;7.55;1.63;;;;;;;21.00;41.02;100579.38;4951716;28;20479;-63
2023/03/22 09:10:17;;;;;;;4.82;1.20;;;;;;;20.87;40.31;100592.94;4936199;28;20043;-63
2023/03/22 09:12:43;;;;;;;5.20;1.20;;;;;;;20.76;41.09;100588.06;4951864;28;20077;-63
2023/03/22 09:15:08;;;;;;;5.03;0.98;;;;;;;20.70;40.38;100588.88;4953001;28;20039;-63
2023/03/22 09:17:34;;;;;;;2.38;1.27;;;;;;;20.76;40.47;100583.47;4951746;28;20445;-62
2023/03/22 09:19:59;;;;;;;3.42;0.88;;;;;;;20.88;39.98;100595.47;4951493;28;20440;-63
2023/03/22 09:22:25;;;;;;;2.45;1.00;;;;;;;21.10;40.38;100596.25;4950866;28;20116;-63
2023/03/22 09:24:50;;;;;;;3.55;0.75;;;;;;;21.44;39.91;100587.97;4951729;29;20398;-63
2023/03/22 09:27:16;;;;;;;2.25;0.70;;;;;;;21.41;39.79;100588.38;4967523;28;20035;-63
2023/03/22 09:29:41;;;;;;;4.18;1.23;;;;;;;21.37;40.50;100586.28;4935340;28;20402;-61
2023/03/22 09:32:07;;;;;;;2.42;0.95;;;;;;;21.22;39.89;100591.88;4951156;28;20066;-62
2023/03/22 09:34:32;;;;;;;5.50;1.00;;;;;;;21.13;39.87;100568.59;4935272;28;20031;-62
2023/03/22 09:37:01;;;;;;;1.58;0.73;;;;;;;21.08;40.56;100578.44;4951529;29;20038;-64
2023/03/22 09:39:27;;;;;;;1.80;0.90;;;;;;;21.07;39.79;100584.88;4935657;28;20062;-64
2023/03/22 09:41:55;;;;;;;1.08;0.80;;;;;;;20.98;40.39;100586.94;4951038;28;20077;-64
2023/03/22 09:44:27;;;;;;;2.67;0.63;;;;;;;20.83;40.46;100591.66;4951237;28;20383;-64
2023/03/22 09:46:54;;;;;;;3.78;0.65;;;;;;;20.70;40.20;100583.44;4935121;28;20042;-63
2023/03/22 09:49:24;;;;;;;7.32;0.98;;;;;;;20.63;40.24;100583.38;4935503;28;20034;-64
2023/03/22 09:51:53;;;;;;;4.22;0.85;;;;;;;20.55;40.56;100588.97;4934728;28;20043;-63
2023/03/22 09:54:32;;;;;;;3.05;0.80;;;;;;;20.49;40.37;100576.16;4966964;28;20084;-63
2023/03/22 09:57:03;;;;;;;6.30;1.25;;;;;;;20.53;40.59;100560.28;4950806;28;20410;-64
2023/03/22 09:59:43;;;;;;;3.75;1.10;;;;;;;20.64;39.83;100563.28;4966859;28;20464;-63
2023/03/22 10:02:21;;;;;;;7.40;1.67;;;;;;;20.72;39.79;100575.91;4934686;28;20043;-64
2023/03/22 10:04:58;;;;;;;3.85;1.08;;;;;;;20.79;40.05;100571.34;4952303;28;20054;-64
2023/03/22 10:07:29;;;;;;;1.65;0.80;;;;;;;20.98;39.46;100569.75;4952017;28;20124;-64
2023/03/22 10:10:03;;;;;;;6.22;0.80;;;;;;;21.23;39.13;100558.16;4935232;28;20042;-64
2023/03/22 10:12:36;;;;;;;3.65;0.60;;;;;;;21.48;39.34;100550.25;4950715;28;20126;-64
2023/03/22 10:15:04;;;;;;;2.88;0.90;;;;;;;21.79;38.91;100558.69;4966673;28;20035;-64
2023/03/22 10:17:30;;;;;;;4.57;1.15;;;;;;;22.31;38.18;100538.75;4950633;28;20130;-64
2023/03/22 10:20:04;;;;;;;10.38;1.17;;;;;;;22.81;37.39;100550.00;4950644;28;20032;-64
2023/03/22 10:22:34;;;;;;;3.65;0.80;;;;;;;22.98;37.69;100542.97;4934921;28;20516;-64
2023/03/22 10:25:00;;;;;;;10.35;1.00;;;;;;;22.87;37.69;100546.38;4951393;29;20024;-64
2023/03/22 10:27:28;;;;;;;2.22;1.02;;;;;;;22.75;37.84;100542.66;4950788;28;20452;-64
2023/03/22 10:30:08;;;;;;;2.63;0.82;;;;;;;22.55;38.62;100551.72;4950792;28;20550;-64
2023/03/22 10:32:44;;;;;;;8.60;1.23;;;;;;;22.39;38.37;100537.69;4950577;28;20059;-64
2023/03/22 10:35:14;;;;;;;4.30;1.13;;;;;;;22.29;38.58;100543.59;4966551;28;20590;-64
2023/03/22 10:37:43;;;;;;;6.75;1.30;;;;;;;22.10;38.47;100539.00;4934567;28;20062;-64
2023/03/22 10:40:33;;;;;;;4.88;1.00;;;;;;;21.95;38.58;100541.09;4935029;28;20035;-63
2023/03/22 10:43:06;;;;;;;2.95;0.80;;;;;;;21.84;38.37;100533.50;4951606;28;20051;-64
2023/03/22 10:45:34;;;;;;;5.68;0.60;;;;;;;21.86;39.32;100545.88;4950338;28;20123;-64
2023/03/22 10:48:10;;;;;;;4.65;0.80;;;;;;;21.82;39.04;100541.06;4934457;28;20043;-63
2023/03/22 10:50:38;;;;;;;5.53;1.13;;;;;;;21.83;39.17;100542.75;4950285;28;20052;-64
2023/03/22 10:53:14;;;;;;;4.07;1.55;;;;;;;21.94;37.85;100540.22;4950304;28;20031;-64
2023/03/22 10:55:41;;;;;;;4.22;0.90;;;;;;;21.93;38.95;100543.19;4949241;28;20020;-64
2023/03/22 10:58:11;;;;;;;3.08;0.65;;;;;;;21.81;38.38;100540.22;4950653;28;20031;-64
2023/03/22 11:00:42;;;;;;;5.55;1.55;;;;;;;21.68;38.41;100528.47;4934224;28;20043;-63
2023/03/22 11:03:07;;;;;;;2.35;0.85;;;;;;;21.55;38.84;100532.03;4950091;28;20054;-64
2023/03/22 11:05:33;;;;;;;6.03;0.60;;;;;;;21.47;38.77;100538.50;4936574;28;20036;-64
2023/03/22 11:08:01;;;;;;;7.47;0.82;;;;;;;21.41;38.13;100550.22;4953472;28;20035;-63
2023/03/22 11:10:33;;;;;;;3.13;0.82;;;;;;;21.36;39.11;100541.81;4937310;28;20035;-64
2023/03/22 11:13:08;;;;;;;2.17;0.60;;;;;;;21.29;39.26;100543.72;4954231;29;20417;-63
2023/03/22 11:15:54;;;;;;;1.75;1.00;;;;;;;21.19;38.85;100540.50;4954560;28;20126;-64
2023/03/22 11:18:20;;;;;;;5.63;0.68;;;;;;;21.11;38.87;100548.88;4937685;28;20038;-64
2023/03/22 11:21:13;;;;;;;2.67;0.95;;;;;;;21.05;39.17;100543.38;4953519;28;20043;-64
2023/03/22 11:23:44;;;;;;;3.13;1.02;;;;;;;20.97;39.43;100546.25;4953765;28;20043;-63
2023/03/22 11:26:12;;;;;;;0.98;0.90;;;;;;;20.89;39.50;100544.56;4953574;28;20035;-64
2023/03/22 11:28:47;;;;;;;7.38;0.80;;;;;;;20.85;39.04;100543.31;4937327;28;20042;-64
2023/03/22 11:31:14;;;;;;;7.35;1.33;;;;;;;20.84;39.13;100533.44;4953301;28;20394;-64